Wheeler Sack Army Air Field
KGTB : now visible

Airfield :











YOU CAN JOIN US ON...

 
LOGIN :

Register | Disclaimer

   EN    FR    IT 

 









Legend :    VFR   Marginal VFR   IFR   Intensive IFR   Very Intensive IFR
Visi :
Ceiling :
>= 8 km
>= 3000ft
5 to 8 km
1000 to 3000 ft
1500m to 5 km
500 to 1000 ft
800 to 1500m
200 to 500 ft
< 800m
< 200 ft
Symbols :   Thunderstorms  Fog  Heavy snow  Heavy precipitations  Wind > 20 kt






- Airport Elevation : 688 ft


KGTB - Wheeler Sack Army Air Field

CURRENT METAR :
  • 101556Z AUTO 12008KT 10SM FEW190 32/21 A2991 RMK AO2 SLP123 T03200212

EXPIRED METARs :
  • 101456Z AUTO 12009KT 10SM FEW180 32/22 A2991 RMK AO2 SLP123 T03150219 58008
  • 101356Z AUTO 12009KT 10SM FEW210 30/22 A2994 RMK AO2 SLP133 T02990223

TAF TAF KGTB
Valid from the 10 at 09:00 until the 11 at 15:00 UTC


100900Z 1009/1115 VRB06KT 9000 BR FEW025 QNH2968INS
BECMG 1011/1012 VRB06KT 9999 NSW FEW025 QNH2967INS
BECMG 1101/1102 VRB06KT 8000 -SHRA BKN010 QNH2965INS
BECMG 1110/1111 VRB06KT 4800 -SHRA OVC010 QNH2965INS
BECMG 1113/1114 VRB06KT 8000 -SHRA OVC015 QNH2961INS TX33/1018Z TN21/1109Z
KZBW FIR / North America



MET'MAP, your aeronautical weather chart ! - Copyright ORBIFLY December 2007 - Disclaimer

ORBIFLY MET'MAP TEAM :

Programming & Development : Alexandra Zaïnal
Concept & original design : Baudouin d'Aumeries
Assistance for programming : Marc-Olivier Méhu
Technical & hardware support : Manuel Goepfert

Contact : metmap@orbifly.com




SOURCES & CREDITS :

   NOAA       Earth
Advisory